Time;durP1;ratioP1;P1;durP2;ratioP2;P2;SDS_P1;SDS_P2;PMS_P1;PMS_P2;Temp;Humidity;BMP_temperature;BMP_pressure;BME280_temperature;BME280_humidity;BME280_pressure;Samples;Min_cycle;Max_cycle;Signal;HPM_P1;HPM_P2
2022/08/20 00:01:39;;;;;;;144.02;28.55;;;18.20;99.90;;;;;;5055489;28;20047;-84
2022/08/20 00:04:05;;;;;;;147.50;29.50;;;18.20;99.90;;;;;;5037679;28;20071;-83
2022/08/20 00:06:32;;;;;;;139.98;28.58;;;18.20;99.90;;;;;;5054191;28;20537;-83
2022/08/20 00:08:58;;;;;;;57.75;20.48;;;18.20;99.90;;;;;;5054166;28;20040;-83
2022/08/20 00:11:25;;;;;;;157.88;29.65;;;18.20;99.90;;;;;;5055013;28;20083;-84
2022/08/20 00:13:55;;;;;;;143.27;28.75;;;18.10;99.90;;;;;;5054960;28;20048;-84
2022/08/20 00:16:24;;;;;;;124.85;27.95;;;18.20;99.90;;;;;;5054345;28;20068;-84
2022/08/20 00:18:50;;;;;;;100.72;25.27;;;18.20;99.90;;;;;;5054014;28;20045;-84
2022/08/20 00:21:17;;;;;;;113.90;27.13;;;18.20;99.90;;;;;;5055182;28;20052;-84
2022/08/20 00:23:46;;;;;;;97.75;25.73;;;18.20;99.90;;;;;;5054838;28;20048;-84
2022/08/20 00:26:12;;;;;;;163.07;30.23;;;18.20;99.90;;;;;;5054681;28;20045;-85
2022/08/20 00:28:38;;;;;;;147.88;30.95;;;18.20;99.90;;;;;;5054837;28;20094;-84
2022/08/20 00:31:06;;;;;;;144.73;28.35;;;18.10;99.90;;;;;;5053882;28;20379;-85
2022/08/20 00:33:33;;;;;;;129.27;28.52;;;18.10;99.90;;;;;;5054965;28;20492;-85
2022/08/20 00:36:05;;;;;;;115.38;25.70;;;18.00;99.90;;;;;;5053762;28;20055;-85
2022/08/20 00:38:32;;;;;;;140.73;28.98;;;18.10;99.90;;;;;;5037115;28;20040;-84
2022/08/20 00:40:59;;;;;;;56.40;19.25;;;18.10;99.90;;;;;;5052817;28;20107;-85
2022/08/20 00:43:30;;;;;;;57.35;19.02;;;18.00;99.90;;;;;;5054404;28;20433;-86
2022/08/20 00:45:58;;;;;;;26.73;16.08;;;18.00;99.90;;;;;;5053613;28;20044;-84
2022/08/20 00:48:26;;;;;;;90.28;23.33;;;18.00;99.90;;;;;;5054737;28;20045;-85
2022/08/20 00:50:55;;;;;;;56.78;19.00;;;18.00;99.90;;;;;;5054240;28;20044;-85
2022/08/20 00:53:24;;;;;;;39.25;18.00;;;17.80;99.90;;;;;;5054410;28;20033;-83
2022/08/20 00:55:50;;;;;;;118.22;26.55;;;17.80;99.90;;;;;;5053100;28;20120;-84
2022/08/20 00:58:16;;;;;;;100.78;24.92;;;17.80;99.90;;;;;;5053459;28;20131;-84
2022/08/20 01:00:46;;;;;;;26.48;13.27;;;17.70;99.90;;;;;;5054399;28;20037;-84
2022/08/20 01:03:14;;;;;;;132.45;26.60;;;17.80;99.90;;;;;;5054224;28;20390;-84
2022/08/20 01:05:43;;;;;;;151.80;27.63;;;17.80;99.90;;;;;;5036409;28;20049;-84
2022/08/20 01:08:10;;;;;;;34.10;16.95;;;17.70;99.90;;;;;;5036399;28;20402;-85
2022/08/20 01:10:39;;;;;;;57.10;19.13;;;17.70;99.90;;;;;;5052839;28;20124;-84
2022/08/20 01:13:09;;;;;;;99.95;23.88;;;17.70;99.90;;;;;;5053167;28;20404;-84
2022/08/20 01:15:40;;;;;;;34.77;17.07;;;17.70;99.90;;;;;;5053039;28;20052;-83
2022/08/20 01:18:09;;;;;;;132.68;26.25;;;17.70;99.90;;;;;;5053798;28;20080;-84
2022/08/20 01:20:41;;;;;;;143.38;27.25;;;17.70;99.90;;;;;;5052814;28;20379;-84
2022/08/20 01:23:26;;;;;;;117.20;26.27;;;17.70;99.90;;;;;;5053525;28;20131;-83
2022/08/20 01:26:16;;;;;;;157.15;27.98;;;17.70;99.90;;;;;;5053045;28;20059;-84
2022/08/20 01:28:54;;;;;;;138.02;26.92;;;17.70;99.90;;;;;;5052645;28;20080;-84
2022/08/20 01:31:24;;;;;;;81.85;22.25;;;17.70;99.90;;;;;;5052646;28;20102;-84
2022/08/20 01:33:53;;;;;;;121.45;26.98;;;17.70;99.90;;;;;;5052714;28;20048;-84
2022/08/20 01:36:29;;;;;;;119.88;25.40;;;17.70;99.90;;;;;;5053635;28;20044;-84
2022/08/20 01:38:55;;;;;;;91.35;23.45;;;17.70;99.90;;;;;;5052627;28;20044;-84
2022/08/20 01:41:40;;;;;;;73.72;22.02;;;17.70;99.90;;;;;;5052564;28;20056;-84
2022/08/20 01:44:05;;;;;;;120.75;26.08;;;17.70;99.90;;;;;;5035457;28;20056;-84
2022/08/20 01:46:38;;;;;;;122.05;26.33;;;17.80;99.90;;;;;;5053602;28;20040;-84
2022/08/20 01:49:22;;;;;;;93.13;23.88;;;17.70;99.90;;;;;;5052294;28;20040;-84
2022/08/20 01:51:50;;;;;;;110.93;25.88;;;17.70;99.90;;;;;;5052024;28;20045;-84
2022/08/20 01:54:16;;;;;;;101.63;24.52;;;17.70;99.90;;;;;;5052948;28;20076;-84
2022/08/20 01:56:57;;;;;;;57.42;18.48;;;17.60;99.90;;;;;;5052948;28;20516;-85
2022/08/20 01:59:22;;;;;;;;;;;17.60;99.90;;;;;;5053540;28;20040;-83
2022/08/20 02:01:48;;;;;;;89.10;21.65;;;17.60;99.90;;;;;;5052282;28;19917;-84
2022/08/20 02:04:17;;;;;;;59.58;18.13;;;17.60;99.90;;;;;;5053046;28;20064;-84
2022/08/20 02:06:47;;;;;;;28.70;13.45;;;17.60;99.90;;;;;;5051675;28;20359;-84
2022/08/20 02:09:13;;;;;;;94.20;22.23;;;17.50;99.90;;;;;;5053010;28;20033;-84
2022/08/20 02:11:40;;;;;;;76.03;21.90;;;17.50;99.90;;;;;;5052975;28;20095;-84
2022/08/20 02:14:08;;;;;;;97.70;22.90;;;17.50;99.90;;;;;;5052913;28;20037;-84
2022/08/20 02:16:38;;;;;;;100.70;23.70;;;17.50;99.90;;;;;;5035271;28;20087;-84
2022/08/20 02:19:11;;;;;;;108.43;23.63;;;17.50;99.90;;;;;;5051857;28;20045;-85
2022/08/20 02:21:41;;;;;;;76.57;20.80;;;17.40;99.90;;;;;;5052625;28;20447;-85
2022/08/20 02:24:07;;;;;;;70.82;18.60;;;17.40;99.90;;;;;;5052556;28;20037;-84
2022/08/20 02:26:36;;;;;;;106.80;22.67;;;17.40;99.90;;;;;;5051653;28;20075;-84
2022/08/20 02:29:07;;;;;;;112.07;23.17;;;17.30;99.90;;;;;;5052673;28;20045;-84
2022/08/20 02:31:35;;;;;;;82.93;21.45;;;17.40;99.90;;;;;;5051271;28;20037;-83
2022/08/20 02:34:01;;;;;;;100.05;23.33;;;17.40;99.90;;;;;;5052569;28;20045;-84
2022/08/20 02:36:27;;;;;;;117.60;23.60;;;17.40;99.90;;;;;;5052278;28;20049;-84
2022/08/20 02:38:52;;;;;;;100.40;22.48;;;17.30;99.90;;;;;;5052747;28;20041;-84
2022/08/20 02:41:20;;;;;;;98.32;23.60;;;17.30;99.90;;;;;;5052606;28;20052;-84
2022/08/20 02:43:46;;;;;;;87.10;22.08;;;17.20;99.90;;;;;;5052632;28;20056;-84
2022/08/20 02:46:14;;;;;;;104.18;23.40;;;17.30;99.90;;;;;;5051402;28;20125;-84
2022/08/20 02:48:40;;;;;;;97.00;22.85;;;17.30;99.90;;;;;;5052213;28;20199;-84
2022/08/20 02:51:07;;;;;;;118.55;23.52;;;17.30;99.90;;;;;;5052272;28;20084;-84
2022/08/20 02:53:37;;;;;;;91.80;22.17;;;17.30;99.90;;;;;;5051546;28;20037;-84
2022/08/20 02:56:08;;;;;;;82.60;19.92;;;17.30;99.90;;;;;;5052494;28;20041;-84
2022/08/20 02:58:34;;;;;;;101.45;21.70;;;17.30;99.90;;;;;;5052386;28;20044;-84
2022/08/20 03:01:02;;;;;;;101.75;22.65;;;17.30;99.90;;;;;;5052314;28;20041;-84
2022/08/20 03:03:28;;;;;;;90.57;20.95;;;17.20;99.90;;;;;;5050938;28;20033;-84
2022/08/20 03:05:56;;;;;;;106.75;20.70;;;17.20;99.90;;;;;;5053354;28;20088;-84
2022/08/20 03:08:23;;;;;;;88.35;20.27;;;17.20;99.90;;;;;;5056303;28;20122;-86
2022/08/20 03:10:50;;;;;;;78.93;20.27;;;17.10;99.90;;;;;;5055220;28;20048;-84
2022/08/20 03:13:16;;;;;;;84.05;20.25;;;17.00;99.90;;;;;;5056325;28;20118;-83
2022/08/20 03:15:46;;;;;;;101.95;20.88;;;17.00;99.90;;;;;;5056204;28;20090;-84
2022/08/20 03:18:12;;;;;;;96.43;22.08;;;17.10;99.90;;;;;;5038141;28;20397;-84
2022/08/20 03:20:38;;;;;;;52.58;17.23;;;17.00;99.90;;;;;;5054636;28;20044;-85
2022/08/20 03:23:04;;;;;;;66.55;19.38;;;17.00;99.90;;;;;;5056149;28;20084;-84
2022/08/20 03:25:31;;;;;;;75.38;20.75;;;17.10;99.90;;;;;;5056087;28;20051;-84
2022/08/20 03:27:56;;;;;;;31.60;13.60;;;17.10;99.90;;;;;;5056069;28;20420;-84
2022/08/20 03:30:24;;;;;;;61.95;18.25;;;17.10;99.90;;;;;;5055904;28;20066;-83
2022/08/20 03:32:50;;;;;;;58.42;18.35;;;17.20;99.90;;;;;;5055838;28;20044;-83
2022/08/20 03:35:20;;;;;;;68.03;19.52;;;17.10;99.90;;;;;;5055519;28;20513;-84
2022/08/20 03:37:45;;;;;;;57.70;17.85;;;17.10;99.90;;;;;;5054947;28;20063;-84
2022/08/20 03:40:15;;;;;;;27.83;13.82;;;17.10;99.90;;;;;;5055880;28;20041;-84
2022/08/20 03:42:42;;;;;;;26.70;12.30;;;17.10;99.90;;;;;;5056040;28;20389;-84
2022/08/20 03:45:11;;;;;;;44.95;15.27;;;17.10;99.90;;;;;;5054591;28;20040;-83
2022/08/20 03:47:38;;;;;;;34.03;14.05;;;17.10;99.90;;;;;;5055556;28;20086;-84
2022/08/20 03:50:06;;;;;;;49.28;16.35;;;17.10;99.90;;;;;;5054114;28;20388;-84
2022/08/20 03:52:31;;;;;;;67.65;18.60;;;17.00;99.90;;;;;;5054545;28;20041;-84
2022/08/20 03:54:57;;;;;;;33.75;13.65;;;17.10;99.90;;;;;;5054485;28;20055;-84
2022/08/20 03:57:23;;;;;;;46.33;16.35;;;17.00;99.90;;;;;;5037712;28;20049;-83
2022/08/20 03:59:50;;;;;;;26.27;13.02;;;17.00;99.90;;;;;;5055566;28;20037;-84
2022/08/20 04:02:16;;;;;;;32.00;13.88;;;17.00;99.90;;;;;;5055396;28;20058;-84
2022/08/20 04:04:41;;;;;;;33.70;12.98;;;17.00;99.90;;;;;;5055093;28;20045;-84
2022/08/20 04:07:15;;;;;;;78.88;19.17;;;17.00;99.90;;;;;;5055052;28;20474;-84
2022/08/20 04:09:42;;;;;;;66.10;18.67;;;17.00;99.90;;;;;;5053939;28;20040;-84
2022/08/20 04:12:11;;;;;;;33.38;13.70;;;17.00;99.90;;;;;;5054128;28;20048;-84
2022/08/20 04:14:36;;;;;;;56.25;15.95;;;17.00;99.90;;;;;;5054027;28;20095;-84
2022/08/20 04:17:08;;;;;;;38.22;14.60;;;17.00;99.90;;;;;;5054778;28;20049;-83
2022/08/20 04:19:35;;;;;;;34.90;13.68;;;17.00;99.90;;;;;;5053791;28;20106;-83
2022/08/20 04:22:01;;;;;;;44.80;15.20;;;16.90;99.90;;;;;;5054976;28;20048;-84
2022/08/20 04:24:27;;;;;;;34.58;13.52;;;16.90;99.90;;;;;;5053829;28;20382;-84
2022/08/20 04:26:53;;;;;;;50.50;15.50;;;16.80;99.90;;;;;;5054912;28;20543;-84
2022/08/20 04:29:23;;;;;;;49.22;15.45;;;16.80;99.90;;;;;;5052838;28;20041;-83
2022/08/20 04:31:49;;;;;;;67.18;17.33;;;16.70;99.90;;;;;;5053290;28;20045;-84
2022/08/20 04:34:17;;;;;;;81.18;17.40;;;16.80;99.90;;;;;;5053017;28;20444;-83
2022/08/20 04:36:47;;;;;;;75.57;17.70;;;16.70;99.90;;;;;;5053851;28;20056;-83
2022/08/20 04:39:16;;;;;;;61.97;16.83;;;16.60;99.90;;;;;;5053759;28;20389;-83
2022/08/20 04:41:42;;;;;;;59.63;15.65;;;16.60;99.90;;;;;;5054680;28;20049;-83
2022/08/20 04:44:09;;;;;;;75.32;17.75;;;16.60;99.90;;;;;;5054606;28;20041;-84
2022/08/20 04:46:37;;;;;;;86.43;18.63;;;16.60;99.90;;;;;;5053800;28;20041;-83
2022/08/20 04:49:03;;;;;;;51.78;16.25;;;16.50;99.90;;;;;;5053522;28;20092;-84
2022/08/20 04:51:29;;;;;;;71.75;18.15;;;16.60;99.90;;;;;;5054536;28;20037;-84
2022/08/20 04:53:56;;;;;;;28.35;11.25;;;16.40;99.90;;;;;;5054346;28;20048;-85
2022/08/20 04:56:29;;;;;;;36.10;14.30;;;16.50;99.90;;;;;;5053594;28;20049;-84
2022/08/20 04:58:57;;;;;;;66.82;17.30;;;16.40;99.90;;;;;;5054157;28;20041;-83
2022/08/20 05:01:24;;;;;;;47.00;15.13;;;16.40;99.90;;;;;;5036049;28;20139;-83
2022/08/20 05:03:55;;;;;;;39.60;13.07;;;16.40;99.90;;;;;;5052534;28;20451;-83
2022/08/20 05:06:24;;;;;;;59.22;16.42;;;16.40;99.90;;;;;;5054017;28;20052;-85
2022/08/20 05:08:50;;;;;;;32.90;13.25;;;16.40;99.90;;;;;;5054086;28;20049;-84
2022/08/20 05:11:16;;;;;;;64.65;15.75;;;16.30;99.90;;;;;;5053206;28;20049;-84
2022/08/20 05:13:42;;;;;;;39.65;12.98;;;16.20;99.90;;;;;;5054088;28;20113;-83
2022/08/20 05:16:08;;;;;;;45.35;14.48;;;16.20;99.90;;;;;;5052741;28;20041;-83
2022/08/20 05:18:34;;;;;;;77.63;17.55;;;16.10;99.90;;;;;;5052877;28;20098;-84
2022/08/20 05:21:10;;;;;;;62.90;14.98;;;16.10;99.90;;;;;;5053928;28;20094;-84
2022/08/20 05:23:40;;;;;;;43.25;14.25;;;16.10;99.90;;;;;;5053753;28;20109;-84
2022/08/20 05:26:07;;;;;;;59.88;15.52;;;16.10;99.90;;;;;;5052592;28;20448;-83
2022/08/20 05:28:37;;;;;;;56.97;15.20;;;16.10;99.90;;;;;;5052070;28;20067;-84
2022/08/20 05:31:06;;;;;;;51.78;14.15;;;16.00;99.90;;;;;;5053806;28;20044;-83
2022/08/20 05:33:32;;;;;;;56.13;14.48;;;16.00;99.90;;;;;;5053752;28;20051;-83
2022/08/20 05:35:58;;;;;;;61.33;14.13;;;16.10;99.90;;;;;;5052506;28;20045;-83
2022/08/20 05:38:27;;;;;;;60.22;14.93;;;16.10;99.90;;;;;;5052398;28;20467;-84
2022/08/20 05:40:53;;;;;;;58.67;15.05;;;16.20;99.90;;;;;;5053512;28;20544;-84
2022/08/20 05:43:19;;;;;;;55.72;15.05;;;16.20;99.90;;;;;;5052049;28;20470;-84
2022/08/20 05:45:51;;;;;;;52.83;16.10;;;16.30;99.90;;;;;;5052518;28;20037;-84
2022/08/20 05:48:21;;;;;;;52.67;15.18;;;16.40;99.90;;;;;;5053432;28;20076;-83
2022/08/20 05:50:49;;;;;;;36.60;12.55;;;16.40;99.90;;;;;;5053411;28;20037;-84
2022/08/20 05:53:17;;;;;;;48.20;13.75;;;16.50;99.90;;;;;;5052125;28;20087;-84
2022/08/20 05:55:44;;;;;;;48.58;14.05;;;16.50;99.90;;;;;;5051643;28;20064;-84
2022/08/20 05:58:17;;;;;;;47.08;13.20;;;16.60;99.90;;;;;;5051902;28;20048;-84
2022/08/20 06:00:43;;;;;;;45.58;12.25;;;16.60;99.90;;;;;;5053233;28;20037;-84
2022/08/20 06:05:53;;;;;;;17.23;7.20;;;16.70;99.90;;;;;;5052830;28;20474;-83
2022/08/20 06:08:19;;;;;;;33.35;10.50;;;16.60;99.90;;;;;;5052145;28;20059;-84
2022/08/20 06:10:45;;;;;;;34.47;10.73;;;16.60;99.90;;;;;;5051503;28;20114;-84
2022/08/20 06:13:10;;;;;;;36.42;11.55;;;16.50;99.90;;;;;;5052909;28;20041;-84
2022/08/20 06:15:37;;;;;;;31.73;10.70;;;16.40;99.90;;;;;;5043479;28;20469;-85
2022/08/20 06:18:06;;;;;;;34.15;10.52;;;16.40;99.90;;;;;;5041112;28;20053;-84
2022/08/20 06:20:33;;;;;;;42.88;13.23;;;16.30;99.90;;;;;;5028238;28;20053;-84
2022/08/20 06:22:59;;;;;;;28.70;11.05;;;16.40;99.90;;;;;;5034810;28;20092;-84
2022/08/20 06:25:25;;;;;;;37.88;11.65;;;16.30;99.90;;;;;;5051518;28;20529;-84
2022/08/20 06:27:50;;;;;;;17.73;7.55;;;16.30;99.90;;;;;;5030821;28;20059;-83
2022/08/20 06:30:16;;;;;;;33.55;10.93;;;16.30;99.90;;;;;;5051029;28;20053;-83
2022/08/20 06:32:43;;;;;;;20.90;8.18;;;16.30;99.90;;;;;;5046428;28;20085;-83
2022/08/20 06:35:09;;;;;;;19.77;6.93;;;16.40;99.90;;;;;;5052363;28;20513;-83
2022/08/20 06:37:38;;;;;;;11.73;5.63;;;16.60;99.90;;;;;;5052195;28;20401;-83
2022/08/20 06:40:07;;;;;;;24.10;6.57;;;16.70;99.90;;;;;;5033690;28;20385;-84
2022/08/20 06:42:34;;;;;;;16.15;5.78;;;16.80;99.90;;;;;;5034297;28;20520;-82
2022/08/20 06:45:03;;;;;;;12.20;5.43;;;16.80;99.90;;;;;;5052272;28;20049;-84
2022/08/20 06:47:30;;;;;;;18.52;5.38;;;16.90;99.90;;;;;;5050966;28;20063;-85
2022/08/20 06:49:56;;;;;;;13.32;4.32;;;16.90;99.90;;;;;;5035937;28;20092;-84
2022/08/20 06:52:22;;;;;;;17.95;4.55;;;16.90;99.90;;;;;;5031648;28;20128;-86
2022/08/20 06:54:47;;;;;;;15.82;3.88;;;16.90;99.90;;;;;;5030925;28;20080;-85
2022/08/20 06:57:13;;;;;;;16.42;4.38;;;16.80;99.90;;;;;;5030906;28;20080;-85
2022/08/20 06:59:40;;;;;;;21.48;4.95;;;16.80;99.90;;;;;;5033053;28;20072;-85
2022/08/20 07:02:06;;;;;;;13.40;4.15;;;16.80;99.90;;;;;;5031879;28;20053;-84
2022/08/20 07:04:32;;;;;;;8.63;3.25;;;16.80;99.90;;;;;;5030850;28;20050;-85
2022/08/20 07:06:58;;;;;;;13.63;4.43;;;16.80;99.90;;;;;;5048398;28;20049;-85
2022/08/20 07:09:27;;;;;;;14.98;4.65;;;16.80;99.90;;;;;;5033928;28;20132;-85
2022/08/20 07:11:52;;;;;;;14.93;4.80;;;16.80;99.90;;;;;;5050802;28;20057;-87
2022/08/20 07:14:18;;;;;;;12.98;4.72;;;16.80;99.90;;;;;;5034114;28;20118;-85
2022/08/20 07:16:49;;;;;;;15.32;5.40;;;16.90;99.90;;;;;;5032448;28;20053;-85
2022/08/20 07:19:15;;;;;;;15.23;4.30;;;17.00;99.90;;;;;;5050137;28;20033;-84
2022/08/20 07:21:40;;;;;;;14.38;3.92;;;17.10;99.90;;;;;;5047807;28;20047;-86
2022/08/20 07:24:08;;;;;;;14.13;3.88;;;17.20;99.90;;;;;;5032630;28;20393;-85
2022/08/20 07:26:34;;;;;;;14.60;2.90;;;17.20;99.90;;;;;;5044647;28;20053;-86
2022/08/20 07:28:59;;;;;;;12.43;2.80;;;17.20;99.90;;;;;;5051879;28;20380;-87
2022/08/20 07:34:23;;;;;;;7.68;2.40;;;17.40;99.90;;;;;;4993020;28;20053;-87
2022/08/20 07:36:49;;;;;;;7.93;1.40;;;17.40;99.90;;;;;;5009059;28;20046;-89
2022/08/20 07:39:14;;;;;;;11.27;1.45;;;17.30;99.90;;;;;;4993536;28;20069;-87
2022/08/20 07:41:40;;;;;;;8.68;1.70;;;17.30;99.90;;;;;;5009726;28;20136;-86
2022/08/20 07:44:06;;;;;;;7.07;1.70;;;17.20;99.90;;;;;;5009418;28;20527;-86
2022/08/20 07:46:32;;;;;;;14.52;2.00;;;17.20;99.90;;;;;;5009107;28;20451;-83
2022/08/20 07:48:58;;;;;;;10.68;1.67;;;17.30;99.90;;;;;;5009602;28;20458;-86
2022/08/20 07:51:23;;;;;;;9.30;1.90;;;17.50;99.90;;;;;;5010206;28;20054;-86
2022/08/20 07:53:50;;;;;;;14.93;1.77;;;17.70;99.90;;;;;;5007818;28;20515;-87
2022/08/20 07:56:22;;;;;;;9.25;1.77;;;17.80;99.90;;;;;;5020201;28;20056;-86
2022/08/20 07:58:51;;;;;;;11.68;1.70;;;17.90;99.90;;;;;;4995700;28;20471;-87
2022/08/20 08:01:19;;;;;;;8.77;1.58;;;18.00;99.90;;;;;;4982856;28;20192;-87
2022/08/20 08:03:45;;;;;;;10.10;1.75;;;18.00;99.90;;;;;;5013989;28;20556;-88
2022/08/20 08:06:11;;;;;;;9.75;1.70;;;18.20;99.90;;;;;;5012443;28;20069;-87
2022/08/20 08:08:39;;;;;;;7.00;1.27;;;18.20;99.90;;;;;;5012814;28;20057;-87
2022/08/20 08:11:04;;;;;;;8.10;1.48;;;18.20;99.90;;;;;;5052965;28;20052;-88
2022/08/20 08:13:34;;;;;;;10.27;1.77;;;18.50;99.90;;;;;;5042868;28;20050;-82
2022/08/20 08:16:03;;;;;;;9.23;1.65;;;18.80;99.90;;;;;;5036180;28;20455;-82
2022/08/20 08:18:36;;;;;;;6.20;1.40;;;18.90;99.90;;;;;;5043539;28;20053;-86
2022/08/20 08:21:04;;;;;;;5.35;1.50;;;18.90;99.90;;;;;;5054326;28;20040;-87
2022/08/20 08:23:30;;;;;;;6.63;1.30;;;18.70;99.90;;;;;;5046618;28;20051;-86
2022/08/20 08:25:57;;;;;;;6.93;1.50;;;18.70;99.90;;;;;;5034971;28;20038;-86
2022/08/20 08:28:24;;;;;;;4.57;1.10;;;19.00;99.90;;;;;;5018572;28;20136;-87
2022/08/20 08:30:49;;;;;;;6.68;1.38;;;19.30;99.90;;;;;;5034577;28;20049;-87
2022/08/20 08:33:41;;;;;;;7.22;1.55;;;19.80;99.90;;;;;;5034694;28;20049;-82
2022/08/20 08:36:10;;;;;;;7.53;1.25;;;20.60;99.90;;;;;;5016170;28;20325;-88
2022/08/20 08:38:39;;;;;;;6.05;1.45;;;21.40;99.90;;;;;;5035813;28;20041;-86
2022/08/20 08:41:19;;;;;;;5.72;1.20;;;22.10;99.90;;;;;;5034722;28;20126;-83
2022/08/20 08:43:46;;;;;;;;;;;22.80;99.90;;;;;;5038201;28;21239;-87
2022/08/20 08:46:15;;;;;;;5.43;1.20;;;23.30;99.90;;;;;;5022275;28;19999;-81
2022/08/20 08:48:45;;;;;;;5.07;1.02;;;23.70;99.90;;;;;;5054502;28;20064;-80
2022/08/20 08:51:15;;;;;;;6.95;1.35;;;24.00;99.90;;;;;;5054221;28;20040;-87
2022/08/20 08:53:52;;;;;;;4.53;1.13;;;24.30;99.90;;;;;;5053532;28;20056;-88
2022/08/20 08:56:19;;;;;;;8.13;1.23;;;24.60;99.90;;;;;;5054500;28;20060;-83
2022/08/20 08:58:44;;;;;;;4.97;1.40;;;24.90;99.90;;;;;;5054391;28;20056;-87
2022/08/20 09:01:14;;;;;;;4.65;0.98;;;25.20;99.90;;;;;;5053996;28;20040;-88
2022/08/20 09:03:44;;;;;;;3.22;0.90;;;25.60;99.90;;;;;;5053583;28;20045;-89
2022/08/20 09:06:15;;;;;;;;;;;26.00;99.90;;;;;;5054962;28;20045;-87
2022/08/20 09:08:41;;;;;;;;;;;26.50;99.90;;;;;;5053643;28;20007;-88
2022/08/20 09:11:07;;;;;;;6.85;1.10;;;26.70;99.90;;;;;;5054279;28;20389;-89
2022/08/20 09:13:34;;;;;;;7.15;1.75;;;26.60;99.90;;;;;;5054047;28;20044;-89
2022/08/20 09:16:00;;;;;;;5.65;1.08;;;26.60;99.90;;;;;;5053207;28;20041;-89
2022/08/20 09:18:26;;;;;;;3.03;1.13;;;26.90;98.10;;;;;;5053173;28;20049;-89
2022/08/20 09:20:51;;;;;;;5.65;1.02;;;27.10;93.70;;;;;;5052847;28;20491;-91
2022/08/20 09:23:17;;;;;;;4.72;1.30;;;27.50;89.20;;;;;;5053993;28;20037;-89
2022/08/20 09:25:43;;;;;;;7.05;1.58;;;27.70;86.40;;;;;;5053878;28;20045;-89
2022/08/20 09:28:08;;;;;;;5.03;1.13;;;28.00;77.30;;;;;;5035904;28;20056;-90
2022/08/20 09:30:34;;;;;;;4.95;1.27;;;28.40;78.40;;;;;;5020202;28;20088;-88
2022/08/20 09:33:00;;;;;;;7.90;1.60;;;28.70;75.00;;;;;;5033897;28;20046;-89
2022/08/20 09:35:26;;;;;;;5.47;1.30;;;28.80;71.30;;;;;;5033661;28;20049;-89
2022/08/20 09:37:54;;;;;;;4.78;1.35;;;29.00;68.20;;;;;;5033918;28;20434;-87
2022/08/20 09:40:21;;;;;;;5.05;1.08;;;29.40;68.30;;;;;;5032652;28;20057;-90
2022/08/20 09:42:47;;;;;;;4.28;1.00;;;29.80;62.80;;;;;;5032460;28;20054;-89
2022/08/20 09:45:13;;;;;;;5.72;1.35;;;29.80;61.30;;;;;;5033836;28;20049;-88
2022/08/20 09:47:40;;;;;;;13.73;1.40;;;29.80;63.90;;;;;;5033675;28;20064;-90
2022/08/20 09:50:07;;;;;;;6.07;1.35;;;30.00;59.70;;;;;;5033302;28;20045;-89
2022/08/20 09:52:36;;;;;;;5.97;1.02;;;30.10;60.00;;;;;;5032476;28;20135;-89
2022/08/20 09:55:10;;;;;;;6.43;1.17;;;30.30;60.00;;;;;;5032309;28;20407;-89
2022/08/20 09:57:36;;;;;;;6.18;1.40;;;30.60;66.90;;;;;;5015516;28;20061;-89
2022/08/20 10:00:11;;;;;;;3.25;0.93;;;31.00;56.30;;;;;;5033592;28;20048;-88
2022/08/20 10:02:37;;;;;;;6.15;1.15;;;31.30;59.60;;;;;;5048501;28;20550;-85
2022/08/20 10:05:03;;;;;;;4.30;1.23;;;31.70;56.80;;;;;;5032014;28;20182;-89
2022/08/20 10:07:29;;;;;;;5.03;1.13;;;31.90;55.80;;;;;;5032992;28;20060;-82
2022/08/20 10:09:55;;;;;;;6.10;1.52;;;31.90;55.50;;;;;;5032776;28;20048;-90
2022/08/20 10:12:21;;;;;;;7.40;1.30;;;31.80;53.50;;;;;;5032774;28;20054;-89
2022/08/20 10:14:46;;;;;;;4.28;1.40;;;31.80;52.90;;;;;;5031469;28;20414;-85
2022/08/20 10:17:12;;;;;;;4.95;1.15;;;31.70;52.40;;;;;;5032968;28;20049;-90
2022/08/20 10:19:38;;;;;;;3.72;1.30;;;31.60;52.80;;;;;;5031836;28;20410;-87
2022/08/20 10:22:04;;;;;;;6.07;1.30;;;31.40;52.80;;;;;;5032704;28;20492;-92
2022/08/20 10:24:29;;;;;;;7.10;1.05;;;31.40;55.10;;;;;;5031844;28;20056;-92
2022/08/20 10:27:00;;;;;;;3.92;0.90;;;31.40;52.40;;;;;;5032466;28;20045;-90
2022/08/20 10:29:27;;;;;;;3.67;1.13;;;31.50;54.70;;;;;;5048432;28;20120;-88
2022/08/20 10:31:55;;;;;;;6.30;1.23;;;31.60;52.80;;;;;;5032634;28;20045;-90
2022/08/20 10:34:24;;;;;;;5.63;1.30;;;31.40;53.30;;;;;;5015200;28;20124;-92
2022/08/20 10:36:50;;;;;;;5.55;1.10;;;31.40;52.10;;;;;;5031640;28;20450;-90
2022/08/20 10:39:16;;;;;;;5.75;1.05;;;31.20;50.50;;;;;;5032921;28;20041;-90
2022/08/20 10:41:41;;;;;;;4.57;1.30;;;30.80;51.90;;;;;;5032378;28;20046;-89
2022/08/20 10:44:07;;;;;;;4.03;1.13;;;30.40;51.10;;;;;;5031426;28;20045;-87
2022/08/20 10:46:33;;;;;;;4.80;1.10;;;29.90;52.60;;;;;;5032453;28;20041;-90
2022/08/20 10:48:59;;;;;;;5.90;1.33;;;29.60;53.20;;;;;;5032475;28;20065;-92
2022/08/20 10:51:25;;;;;;;2.90;0.90;;;29.50;53.40;;;;;;5031437;28;20060;-89
2022/08/20 10:53:50;;;;;;;6.38;1.30;;;29.40;53.60;;;;;;5048244;28;20061;-87
2022/08/20 10:56:16;;;;;;;5.78;1.38;;;29.40;53.80;;;;;;5032135;28;20056;-90
2022/08/20 10:58:42;;;;;;;5.35;1.40;;;29.80;54.10;;;;;;5048109;28;20045;-90
2022/08/20 11:01:08;;;;;;;7.50;1.35;;;30.20;54.00;;;;;;5032353;28;20072;-87
2022/08/20 11:03:34;;;;;;;7.07;1.55;;;30.20;52.50;;;;;;5048110;28;20077;-86
2022/08/20 11:06:00;;;;;;;4.18;1.10;;;29.80;52.70;;;;;;5031942;28;20052;-89
2022/08/20 11:08:29;;;;;;;5.35;1.35;;;29.20;54.10;;;;;;5032411;28;20107;-91
2022/08/20 11:10:54;;;;;;;6.55;1.52;;;29.20;55.90;;;;;;5037231;28;20107;-91
2022/08/20 11:13:20;;;;;;;4.35;1.05;;;28.90;52.90;;;;;;5058150;28;20044;-91
2022/08/20 11:15:46;;;;;;;6.05;1.23;;;28.40;54.70;;;;;;5048454;28;20521;-91
2022/08/20 11:18:12;;;;;;;5.95;1.27;;;28.20;55.80;;;;;;5050215;28;20053;-91
2022/08/20 11:20:39;;;;;;;5.63;1.13;;;28.70;56.80;;;;;;5047818;28;20088;-86
2022/08/20 11:23:07;;;;;;;4.25;1.30;;;29.00;55.70;;;;;;5032849;28;20045;-92
2022/08/20 11:25:32;;;;;;;7.72;1.50;;;29.10;54.90;;;;;;5016412;28;20059;-90
2022/08/20 11:27:58;;;;;;;3.63;1.10;;;28.30;54.60;;;;;;5044915;28;20045;-89
2022/08/20 11:30:31;;;;;;;3.88;1.25;;;28.10;56.30;;;;;;5040950;28;20045;-91
2022/08/20 11:32:58;;;;;;;7.80;1.33;;;28.60;57.20;;;;;;5035723;28;20041;-89
2022/08/20 11:35:25;;;;;;;7.10;1.25;;;29.50;54.60;;;;;;5036742;28;20077;-84
2022/08/20 11:37:54;;;;;;;6.03;1.02;;;30.10;51.30;;;;;;5037434;28;20057;-91
2022/08/20 11:40:20;;;;;;;5.95;1.05;;;29.40;50.90;;;;;;5045823;28;20041;-86
2022/08/20 11:42:46;;;;;;;5.50;1.52;;;28.30;51.70;;;;;;5047664;28;20503;-89
2022/08/20 11:45:12;;;;;;;7.43;1.30;;;27.40;52.80;;;;;;5033591;28;20066;-92
2022/08/20 11:47:38;;;;;;;5.28;1.40;;;27.50;54.40;;;;;;5042892;28;20048;-89
2022/08/20 11:50:19;;;;;;;6.60;1.35;;;27.80;54.60;;;;;;5055248;28;20049;-92
2022/08/20 11:52:44;;;;;;;4.15;0.95;;;28.30;54.60;;;;;;5055206;28;20117;-88
2022/08/20 11:55:12;;;;;;;7.03;1.30;;;29.20;53.10;;;;;;5053475;28;20136;-85
2022/08/20 11:57:42;;;;;;;7.18;1.33;;;29.70;52.00;;;;;;5055419;28;20045;-92
2022/08/20 12:00:13;;;;;;;4.07;1.23;;;30.20;52.20;;;;;;5055308;28;20517;-89
2022/08/20 12:02:39;;;;;;;4.50;1.20;;;30.40;51.10;;;;;;5054233;28;20045;-89
2022/08/20 12:05:25;;;;;;;5.63;1.10;;;30.70;50.60;;;;;;5055067;28;20119;-87
2022/08/20 12:07:51;;;;;;;2.85;1.20;;;31.30;50.90;;;;;;5049403;28;20099;-91
2022/08/20 12:10:17;;;;;;;4.63;1.20;;;31.60;48.20;;;;;;5054962;28;20092;-89
2022/08/20 12:12:42;;;;;;;7.72;1.38;;;31.70;47.20;;;;;;5054360;28;20528;-88
2022/08/20 12:15:09;;;;;;;4.05;1.10;;;30.60;47.30;;;;;;5054079;28;20063;-88
2022/08/20 12:17:35;;;;;;;3.83;1.20;;;29.30;49.80;;;;;;5055118;28;20406;-85
2022/08/20 12:20:06;;;;;;;3.38;1.17;;;28.80;51.60;;;;;;5054060;28;20045;-84
2022/08/20 12:22:31;;;;;;;;;;;28.00;50.00;;;;;;5054188;28;20063;-88
2022/08/20 12:24:57;;;;;;;4.95;1.20;;;27.60;52.80;;;;;;5024830;28;19921;-87
2022/08/20 12:27:25;;;;;;;4.90;1.30;;;27.30;53.30;;;;;;5050061;28;20040;-87
2022/08/20 12:29:53;;;;;;;3.50;1.10;;;27.30;52.20;;;;;;5036349;28;20398;-87
2022/08/20 12:32:20;;;;;;;5.60;1.23;;;27.40;51.30;;;;;;5042162;28;20042;-84
2022/08/20 12:34:46;;;;;;;4.53;1.30;;;27.70;51.70;;;;;;5034248;28;20092;-88
2022/08/20 12:37:17;;;;;;;4.30;1.20;;;28.10;50.70;;;;;;5045755;28;20041;-87
2022/08/20 12:39:46;;;;;;;3.83;1.17;;;28.10;50.50;;;;;;5032659;28;20479;-87
2022/08/20 12:42:13;;;;;;;5.88;1.27;;;27.80;50.90;;;;;;5042631;28;20207;-87
2022/08/20 12:44:39;;;;;;;6.25;1.48;;;27.40;50.70;;;;;;5036576;28;20130;-88